Time;durP1;ratioP1;P1;durP2;ratioP2;P2;SDS_P1;SDS_P2;PMS_P1;PMS_P2;Temp;Humidity;BMP_temperature;BMP_pressure;BME280_temperature;BME280_humidity;BME280_pressure;Samples;Min_cycle;Max_cycle;Signal;HPM_P1;HPM_P2
2022/11/26 00:02:22;;;;;;;27.63;8.33;;;5.70;99.90;;;;;;4859742;29;38660;-82
2022/11/26 00:04:50;;;;;;;25.33;8.63;;;5.60;99.90;;;;;;4866431;29;38637;-81
2022/11/26 00:07:21;;;;;;;32.93;9.67;;;5.60;99.90;;;;;;4879186;29;36168;-79
2022/11/26 00:09:50;;;;;;;24.63;7.33;;;5.50;99.90;;;;;;4863309;29;39707;-82
2022/11/26 00:12:27;;;;;;;25.77;7.87;;;5.60;99.90;;;;;;4860517;29;37539;-81
2022/11/26 00:15:36;;;;;;;25.30;8.47;;;5.60;99.90;;;;;;4877574;29;39696;-81
2022/11/26 00:18:11;;;;;;;30.47;9.83;;;5.60;99.90;;;;;;4881620;29;48620;-82
2022/11/26 00:20:41;;;;;;;35.80;8.87;;;5.50;99.90;;;;;;4875594;29;48763;-82
2022/11/26 00:23:22;;;;;;;25.93;8.60;;;5.40;99.90;;;;;;4874147;29;37558;-81
2022/11/26 00:25:58;;;;;;;34.97;9.07;;;5.60;99.90;;;;;;4881847;29;38092;-83
2022/11/26 00:28:30;;;;;;;28.13;8.90;;;5.70;99.90;;;;;;4875843;29;36903;-82
2022/11/26 00:31:11;;;;;;;30.55;9.35;;;5.70;99.90;;;;;;4868659;29;38598;-83
2022/11/26 00:34:07;;;;;;;28.93;9.37;;;5.70;99.90;;;;;;4897032;29;48590;-82
2022/11/26 00:36:52;;;;;;;25.53;8.53;;;5.70;99.90;;;;;;4893045;29;48301;-83
2022/11/26 00:39:36;;;;;;;21.80;8.27;;;5.70;99.90;;;;;;4865660;29;37583;-82
2022/11/26 00:42:03;;;;;;;23.67;8.43;;;5.70;99.90;;;;;;4877020;29;39071;-83
2022/11/26 00:44:35;;;;;;;24.17;7.93;;;5.70;99.90;;;;;;4872171;29;48276;-81
2022/11/26 00:47:02;;;;;;;27.42;9.90;;;5.60;99.90;;;;;;4893772;29;39027;-81
2022/11/26 00:49:29;;;;;;;35.17;11.13;;;5.50;99.90;;;;;;4874711;29;35644;-82
2022/11/26 00:52:23;;;;;;;36.53;11.40;;;5.70;99.90;;;;;;4879908;29;38404;-82
2022/11/26 00:54:52;;;;;;;25.50;10.13;;;5.80;99.90;;;;;;4875119;29;48180;-83
2022/11/26 00:57:18;;;;;;;32.93;10.10;;;5.80;99.90;;;;;;4873927;29;39811;-81
2022/11/26 00:59:46;;;;;;;28.10;9.97;;;5.70;99.90;;;;;;4861520;29;37501;-83
2022/11/26 01:02:14;;;;;;;30.40;11.13;;;5.60;99.90;;;;;;4865068;29;38060;-81
2022/11/26 01:04:41;;;;;;;28.10;11.37;;;5.50;99.90;;;;;;4864139;29;38014;-81
2022/11/26 01:07:11;;;;;;;24.20;10.80;;;5.40;99.90;;;;;;4878678;29;38324;-81
2022/11/26 01:09:43;;;;;;;30.80;10.20;;;5.40;99.90;;;;;;4875022;29;36335;-82
2022/11/26 01:12:14;;;;;;;29.58;9.00;;;5.50;99.90;;;;;;4855885;29;40228;-81
2022/11/26 01:14:40;;;;;;;29.00;10.87;;;5.50;99.90;;;;;;4874655;29;37340;-82
2022/11/26 01:17:11;;;;;;;27.17;9.70;;;5.60;99.90;;;;;;4871496;29;38727;-83
2022/11/26 01:19:39;;;;;;;39.90;10.23;;;5.60;99.90;;;;;;4873686;29;36237;-82
2022/11/26 01:22:09;;;;;;;33.73;11.60;;;5.70;99.90;;;;;;4857429;29;39248;-81
2022/11/26 01:24:36;;;;;;;25.23;10.10;;;5.80;99.90;;;;;;4861323;29;38742;-81
2022/11/26 01:27:08;;;;;;;35.60;10.73;;;5.70;99.90;;;;;;4861334;29;37142;-81
2022/11/26 01:29:37;;;;;;;40.83;10.97;;;5.70;99.90;;;;;;4869751;29;38942;-81
2022/11/26 01:32:04;;;;;;;38.23;11.40;;;5.80;99.90;;;;;;4860016;29;38906;-82
2022/11/26 01:34:35;;;;;;;38.33;11.87;;;5.70;99.90;;;;;;4874647;29;38652;-81
2022/11/26 01:37:02;;;;;;;26.90;10.63;;;5.70;99.90;;;;;;4875174;29;37278;-83
2022/11/26 01:39:28;;;;;;;28.23;11.23;;;5.80;99.90;;;;;;4859413;29;48984;-82
2022/11/26 01:42:13;;;;;;;53.43;16.73;;;5.70;99.90;;;;;;4858511;29;40610;-82
2022/11/26 01:44:40;;;;;;;34.87;13.73;;;5.80;99.90;;;;;;4862631;29;49086;-82
2022/11/26 01:47:26;;;;;;;30.07;11.30;;;5.70;99.90;;;;;;4857399;29;38773;-82
2022/11/26 01:50:35;;;;;;;33.67;12.73;;;5.70;99.90;;;;;;4886401;29;38317;-83
2022/11/26 01:53:11;;;;;;;29.13;11.93;;;5.70;99.90;;;;;;4855685;29;50274;-83
2022/11/26 01:55:48;;;;;;;34.70;13.37;;;5.70;99.90;;;;;;4858387;29;37929;-81
2022/11/26 01:58:25;;;;;;;33.73;12.70;;;5.70;99.90;;;;;;4859554;29;39687;-81
2022/11/26 02:03:33;;;;;;;28.57;11.30;;;5.70;99.90;;;;;;4962665;23;20041;-74
2022/11/26 02:06:07;;;;;;;31.43;12.77;;;5.60;99.90;;;;;;4885052;29;38172;-73
2022/11/26 02:08:34;;;;;;;29.53;12.40;;;5.70;99.90;;;;;;4878188;29;47279;-75
2022/11/26 02:11:14;;;;;;;31.70;13.03;;;5.70;99.90;;;;;;4891423;29;37941;-73
2022/11/26 02:13:41;;;;;;;32.77;13.07;;;5.70;99.90;;;;;;4885028;29;46275;-73
2022/11/26 02:16:26;;;;;;;29.53;12.97;;;5.70;99.90;;;;;;4889555;29;38754;-74
2022/11/26 02:19:31;;;;;;;32.83;13.13;;;5.80;99.90;;;;;;4891774;29;36559;-74
2022/11/26 02:22:22;;;;;;;40.23;15.03;;;5.80;99.90;;;;;;4873271;29;47176;-74
2022/11/26 02:25:03;;;;;;;35.33;16.27;;;5.80;99.90;;;;;;4891376;29;47074;-73
2022/11/26 02:27:38;;;;;;;36.27;15.60;;;5.80;99.90;;;;;;4894064;29;39559;-74
2022/11/26 02:30:11;;;;;;;40.00;15.60;;;5.80;99.90;;;;;;4894800;29;38298;-74
2022/11/26 02:32:57;;;;;;;;;;;5.90;99.90;;;;;;4894789;29;36222;-74
2022/11/26 02:35:36;;;;;;;44.63;15.90;;;5.90;99.90;;;;;;4895125;29;37669;-73
2022/11/26 02:38:10;;;;;;;42.77;18.03;;;6.00;99.90;;;;;;4893196;29;39767;-74
2022/11/26 02:40:37;;;;;;;35.23;15.10;;;6.00;99.90;;;;;;4879097;29;47022;-74
2022/11/26 02:43:03;;;;;;;36.73;15.73;;;6.00;99.90;;;;;;4889175;29;36741;-74
2022/11/26 02:45:35;;;;;;;34.23;14.13;;;6.00;99.90;;;;;;4882391;29;40622;-74
2022/11/26 02:48:04;;;;;;;39.35;15.50;;;6.00;99.90;;;;;;4891458;29;37466;-74
2022/11/26 02:50:43;;;;;;;50.43;18.47;;;6.00;99.90;;;;;;4872240;29;47413;-74
2022/11/26 02:53:11;;;;;;;31.10;14.70;;;6.00;99.90;;;;;;4885768;29;38605;-74
2022/11/26 02:55:40;;;;;;;47.47;18.93;;;6.00;99.90;;;;;;4891158;29;37773;-74
2022/11/26 02:58:07;;;;;;;47.03;16.07;;;6.10;99.90;;;;;;4890882;29;37981;-74
2022/11/26 03:00:37;;;;;;;47.37;16.43;;;6.10;99.90;;;;;;4893801;29;37974;-74
2022/11/26 03:03:21;;;;;;;34.83;15.23;;;6.10;99.90;;;;;;4893231;29;37514;-75
2022/11/26 03:05:53;;;;;;;36.10;15.67;;;6.10;99.90;;;;;;4894544;29;39535;-74
2022/11/26 03:08:20;;;;;;;40.97;16.83;;;6.10;99.90;;;;;;4888094;29;39311;-74
2022/11/26 03:10:46;;;;;;;41.20;17.23;;;6.10;99.90;;;;;;4895516;29;37977;-72
2022/11/26 03:13:13;;;;;;;46.80;18.50;;;6.10;99.90;;;;;;4873843;29;36336;-73
2022/11/26 03:15:39;;;;;;;39.87;17.93;;;6.20;99.90;;;;;;4892450;29;39588;-73
2022/11/26 03:18:05;;;;;;;47.97;16.87;;;6.10;99.90;;;;;;4896168;29;37952;-73
2022/11/26 03:20:31;;;;;;;50.43;19.70;;;6.10;99.90;;;;;;4895574;29;38369;-74
2022/11/26 03:22:57;;;;;;;42.20;17.03;;;6.10;99.90;;;;;;4876493;29;36364;-75
2022/11/26 03:25:23;;;;;;;42.73;18.77;;;6.20;99.90;;;;;;4893286;29;39975;-73
2022/11/26 03:27:49;;;;;;;41.43;18.10;;;6.20;99.90;;;;;;4895302;29;37340;-73
2022/11/26 03:30:15;;;;;;;52.30;20.70;;;6.20;99.90;;;;;;4893141;29;39214;-73
2022/11/26 03:32:41;;;;;;;39.67;18.63;;;6.20;99.90;;;;;;4876638;29;36759;-74
2022/11/26 03:35:08;;;;;;;40.83;18.07;;;6.30;99.90;;;;;;4891441;29;37950;-74
2022/11/26 03:37:34;;;;;;;46.43;17.80;;;6.30;99.90;;;;;;4876240;29;37318;-74
2022/11/26 03:40:00;;;;;;;53.40;19.37;;;6.20;99.90;;;;;;4894037;29;38549;-74
2022/11/26 03:42:27;;;;;;;41.80;17.87;;;6.20;99.90;;;;;;4892969;29;37117;-74
2022/11/26 03:44:54;;;;;;;48.73;18.53;;;6.20;99.90;;;;;;4890173;29;39012;-73
2022/11/26 03:47:20;;;;;;;41.50;18.93;;;6.20;99.90;;;;;;4881867;29;38891;-74
2022/11/26 03:49:46;;;;;;;41.40;17.57;;;6.10;99.90;;;;;;4871552;29;35729;-75
2022/11/26 03:52:13;;;;;;;40.17;19.07;;;6.10;99.90;;;;;;4890418;29;37568;-74
2022/11/26 03:54:39;;;;;;;43.10;17.17;;;6.10;99.90;;;;;;4890031;29;39605;-74
2022/11/26 03:57:05;;;;;;;43.70;17.30;;;6.10;99.90;;;;;;4887070;29;38741;-72
2022/11/26 03:59:31;;;;;;;50.90;21.87;;;6.10;99.90;;;;;;4875895;29;38212;-73
2022/11/26 04:01:57;;;;;;;37.70;17.73;;;6.10;99.90;;;;;;4890517;29;36004;-74
2022/11/26 04:04:23;;;;;;;50.77;20.70;;;6.00;99.90;;;;;;4893911;29;38904;-74
2022/11/26 04:06:49;;;;;;;39.03;17.23;;;5.90;99.90;;;;;;4888131;29;39111;-73
2022/11/26 04:09:15;;;;;;;46.20;18.63;;;6.00;99.90;;;;;;4892658;29;38751;-73
2022/11/26 04:11:42;;;;;;;40.50;17.47;;;6.10;99.90;;;;;;4876905;29;36147;-73
2022/11/26 04:14:08;;;;;;;41.53;18.40;;;6.00;99.90;;;;;;4891626;29;37597;-73
2022/11/26 04:16:34;;;;;;;43.27;19.13;;;6.10;99.90;;;;;;4873448;29;37618;-73
2022/11/26 04:19:00;;;;;;;38.73;18.93;;;6.10;99.90;;;;;;4893761;29;37543;-74
2022/11/26 04:21:26;;;;;;;43.87;20.23;;;6.10;99.90;;;;;;4889570;29;37842;-73
2022/11/26 04:23:52;;;;;;;38.67;17.80;;;6.20;99.90;;;;;;4891279;29;37713;-73
2022/11/26 04:26:18;;;;;;;44.10;18.80;;;6.20;99.90;;;;;;4886296;29;38069;-74
2022/11/26 04:28:44;;;;;;;47.00;20.67;;;6.20;99.90;;;;;;4887379;29;37587;-73
2022/11/26 04:31:10;;;;;;;46.77;24.10;;;6.20;99.90;;;;;;4891270;29;38610;-73
2022/11/26 04:33:37;;;;;;;51.67;24.60;;;6.30;99.90;;;;;;4890529;29;37524;-73
2022/11/26 04:36:03;;;;;;;60.60;25.17;;;6.30;99.90;;;;;;4893513;29;38881;-73
2022/11/26 04:38:29;;;;;;;54.73;28.13;;;6.30;99.90;;;;;;4889477;29;36700;-74
2022/11/26 04:40:55;;;;;;;58.00;29.23;;;6.30;99.90;;;;;;4890398;29;37536;-73
2022/11/26 04:43:21;;;;;;;53.87;26.80;;;6.30;99.90;;;;;;4888206;29;39569;-73
2022/11/26 04:45:47;;;;;;;60.50;30.93;;;6.20;99.90;;;;;;4873779;29;37322;-73
2022/11/26 04:48:14;;;;;;;71.90;31.07;;;6.30;99.90;;;;;;4888420;29;37763;-74
2022/11/26 04:50:40;;;;;;;63.77;28.57;;;6.30;99.90;;;;;;4891667;29;39794;-74
2022/11/26 04:53:06;;;;;;;63.57;29.60;;;6.30;99.90;;;;;;4893683;29;40100;-73
2022/11/26 04:55:32;;;;;;;60.47;27.53;;;6.30;99.90;;;;;;4888858;29;39104;-74
2022/11/26 04:57:58;;;;;;;59.43;27.40;;;6.30;99.90;;;;;;4892590;29;38461;-74
2022/11/26 05:00:24;;;;;;;61.73;25.10;;;6.30;99.90;;;;;;4891898;29;37558;-73
2022/11/26 05:02:50;;;;;;;49.87;22.83;;;6.30;99.90;;;;;;4893076;29;37850;-74
2022/11/26 05:05:17;;;;;;;55.13;22.97;;;6.30;99.90;;;;;;4888687;29;38288;-74
2022/11/26 05:07:43;;;;;;;54.07;22.07;;;6.30;99.90;;;;;;4888206;29;35729;-74
2022/11/26 05:10:10;;;;;;;47.27;21.10;;;6.20;99.90;;;;;;4879787;29;37062;-74
2022/11/26 05:12:36;;;;;;;47.13;22.03;;;6.30;99.90;;;;;;4875368;29;40760;-74
2022/11/26 05:15:03;;;;;;;47.00;21.23;;;6.20;99.90;;;;;;4892495;29;39537;-74
2022/11/26 05:17:29;;;;;;;54.60;18.93;;;6.20;99.90;;;;;;4889284;29;37161;-74
2022/11/26 05:19:55;;;;;;;49.00;20.90;;;6.20;99.90;;;;;;4872509;29;36377;-74
2022/11/26 05:22:21;;;;;;;61.03;23.40;;;6.20;99.90;;;;;;4892462;29;38537;-74
2022/11/26 05:24:47;;;;;;;55.60;21.87;;;6.20;99.90;;;;;;4888329;29;38538;-73
2022/11/26 05:27:14;;;;;;;43.83;18.43;;;6.20;99.90;;;;;;4873467;29;37169;-74
2022/11/26 05:29:40;;;;;;;50.83;20.93;;;6.20;99.90;;;;;;4887240;29;37319;-74
2022/11/26 05:32:06;;;;;;;46.33;19.73;;;6.10;99.90;;;;;;4887799;29;38583;-75
2022/11/26 05:34:32;;;;;;;36.50;16.80;;;6.00;99.90;;;;;;4877132;29;38450;-74
2022/11/26 05:36:58;;;;;;;55.03;21.70;;;6.10;99.90;;;;;;4888470;29;38494;-74
2022/11/26 05:39:24;;;;;;;47.57;17.60;;;6.10;99.90;;;;;;4894033;29;37810;-74
2022/11/26 05:41:50;;;;;;;45.77;18.70;;;6.10;99.90;;;;;;4890564;29;38069;-73
2022/11/26 05:44:16;;;;;;;48.63;19.40;;;6.20;99.90;;;;;;4889981;29;37633;-74
2022/11/26 05:46:42;;;;;;;48.67;19.53;;;6.20;99.90;;;;;;4872039;29;37530;-74
2022/11/26 05:49:09;;;;;;;48.47;19.30;;;6.30;99.90;;;;;;4887141;29;36813;-74
2022/11/26 05:51:35;;;;;;;45.73;18.67;;;6.30;99.90;;;;;;4889519;29;38706;-74
2022/11/26 05:54:01;;;;;;;46.90;18.90;;;6.30;99.90;;;;;;4875041;29;37448;-74
2022/11/26 05:56:27;;;;;;;47.93;20.20;;;6.30;99.90;;;;;;4875418;29;36983;-73
2022/11/26 05:58:53;;;;;;;56.97;18.90;;;6.40;99.90;;;;;;4876412;29;36398;-73
2022/11/26 06:01:20;;;;;;;54.67;20.00;;;6.40;99.90;;;;;;4889860;29;39828;-73
2022/11/26 06:03:46;;;;;;;48.07;18.83;;;6.40;99.90;;;;;;4872616;29;37755;-74
2022/11/26 06:06:13;;;;;;;48.03;18.97;;;6.50;99.90;;;;;;4871174;29;37444;-73
2022/11/26 06:08:39;;;;;;;47.87;18.43;;;6.50;99.90;;;;;;4886534;29;38405;-74
2022/11/26 06:11:05;;;;;;;66.50;20.00;;;6.50;99.90;;;;;;4889614;29;38987;-75
2022/11/26 06:13:31;;;;;;;48.47;19.63;;;6.50;99.90;;;;;;4872630;29;37823;-74
2022/11/26 06:15:58;;;;;;;52.33;19.87;;;6.60;99.90;;;;;;4890450;29;38042;-73
2022/11/26 06:18:24;;;;;;;47.80;19.40;;;6.50;99.90;;;;;;4869792;29;36347;-74
2022/11/26 06:20:50;;;;;;;54.30;18.63;;;6.50;99.90;;;;;;4868532;29;37651;-73
2022/11/26 06:23:17;;;;;;;47.93;19.23;;;6.50;99.90;;;;;;4868372;29;40479;-74
2022/11/26 06:25:43;;;;;;;46.77;18.07;;;6.50;99.90;;;;;;4888794;29;38279;-75
2022/11/26 06:28:09;;;;;;;53.53;19.60;;;6.60;99.90;;;;;;4886089;29;37494;-74
2022/11/26 06:30:35;;;;;;;55.53;19.37;;;6.60;99.90;;;;;;4874350;29;38291;-74
2022/11/26 06:33:01;;;;;;;56.87;18.93;;;6.60;99.90;;;;;;4873870;29;37690;-75
2022/11/26 06:35:28;;;;;;;54.63;18.77;;;6.60;99.90;;;;;;4890804;29;37245;-74
2022/11/26 06:37:54;;;;;;;59.73;20.37;;;6.70;99.90;;;;;;4880817;29;36096;-78
2022/11/26 06:40:20;;;;;;;48.47;18.30;;;6.70;99.90;;;;;;4892722;29;38795;-77
2022/11/26 06:42:48;;;;;;;58.87;18.10;;;6.70;99.90;;;;;;4878804;29;38271;-75
2022/11/26 06:45:15;;;;;;;72.37;22.03;;;6.70;99.90;;;;;;4891861;29;37923;-75
2022/11/26 06:47:41;;;;;;;41.10;16.67;;;6.70;99.90;;;;;;4893842;29;36324;-75
2022/11/26 06:50:07;;;;;;;39.53;17.17;;;6.70;99.90;;;;;;4880238;29;37607;-75
2022/11/26 06:52:33;;;;;;;46.70;16.70;;;6.70;99.90;;;;;;4897088;29;39178;-75
2022/11/26 06:54:59;;;;;;;41.90;16.67;;;6.70;99.90;;;;;;4879331;29;37228;-74
2022/11/26 06:57:25;;;;;;;61.90;20.00;;;6.80;99.90;;;;;;4878199;29;36162;-76
2022/11/26 06:59:52;;;;;;;42.20;16.73;;;6.80;99.90;;;;;;4893425;29;37280;-75
2022/11/26 07:02:18;;;;;;;46.20;17.03;;;6.80;99.90;;;;;;4897604;29;38309;-75
2022/11/26 07:04:44;;;;;;;45.17;15.07;;;6.80;99.90;;;;;;4897788;29;39423;-75
2022/11/26 07:07:10;;;;;;;54.40;18.63;;;6.80;99.90;;;;;;4898089;29;36793;-75
2022/11/26 07:09:37;;;;;;;44.43;15.27;;;6.80;99.90;;;;;;4898291;29;38863;-76
2022/11/26 07:12:03;;;;;;;53.87;16.47;;;6.80;99.90;;;;;;4892170;29;38615;-75
2022/11/26 07:14:29;;;;;;;47.63;15.20;;;6.80;99.90;;;;;;4890583;29;38688;-74
2022/11/26 07:16:55;;;;;;;50.70;15.83;;;6.80;99.90;;;;;;4888368;29;37322;-75
2022/11/26 07:19:21;;;;;;;38.33;14.37;;;6.90;99.90;;;;;;4881605;29;38066;-75
2022/11/26 07:21:47;;;;;;;46.27;15.50;;;6.90;99.90;;;;;;4891082;29;38742;-74
2022/11/26 07:24:14;;;;;;;55.73;15.63;;;6.90;99.90;;;;;;4888007;29;37699;-73
2022/11/26 07:26:41;;;;;;;54.00;16.17;;;6.90;99.90;;;;;;4892732;29;37914;-75
2022/11/26 07:29:07;;;;;;;41.57;15.67;;;6.90;99.90;;;;;;4893576;29;38080;-75
2022/11/26 07:31:35;;;;;;;42.60;14.80;;;7.00;99.90;;;;;;4891504;29;38926;-76
2022/11/26 07:34:01;;;;;;;52.13;16.03;;;7.00;99.90;;;;;;4878140;29;38541;-76
2022/11/26 07:36:29;;;;;;;51.40;15.70;;;7.10;99.90;;;;;;4873798;29;36422;-75
2022/11/26 07:39:00;;;;;;;42.43;16.33;;;7.00;99.90;;;;;;4875916;29;37875;-75
2022/11/26 07:41:27;;;;;;;53.37;17.20;;;7.00;99.90;;;;;;4886248;29;38234;-75
2022/11/26 07:43:54;;;;;;;49.03;16.80;;;7.10;99.90;;;;;;4888122;29;37938;-74
2022/11/26 07:46:22;;;;;;;51.47;16.37;;;7.10;99.90;;;;;;4893145;29;37442;-75
2022/11/26 07:48:49;;;;;;;42.90;14.67;;;7.10;99.90;;;;;;4889438;29;38062;-74
2022/11/26 07:51:29;;;;;;;58.60;19.20;;;7.10;99.90;;;;;;4873237;29;39043;-74
2022/11/26 07:53:57;;;;;;;47.80;16.63;;;7.10;99.90;;;;;;4874106;29;38099;-75
2022/11/26 07:56:24;;;;;;;52.20;17.67;;;7.10;99.90;;;;;;4891284;29;37652;-74
2022/11/26 07:58:50;;;;;;;50.37;16.40;;;7.10;99.90;;;;;;4894762;29;38724;-75
2022/11/26 08:01:19;;;;;;;44.90;16.20;;;7.10;99.90;;;;;;4890214;29;38521;-76
2022/11/26 08:03:47;;;;;;;47.63;16.13;;;7.10;99.90;;;;;;4887436;29;40051;-75
2022/11/26 08:06:18;;;;;;;53.00;17.43;;;7.20;99.90;;;;;;4876397;29;37090;-75
2022/11/26 08:08:44;;;;;;;71.33;19.47;;;7.20;99.90;;;;;;4875410;29;38029;-75
2022/11/26 08:11:21;;;;;;;46.60;15.47;;;7.20;99.90;;;;;;4891759;29;20113;-76
2022/11/26 08:13:48;;;;;;;52.03;14.23;;;7.20;99.90;;;;;;4889953;29;38049;-75
2022/11/26 08:16:14;;;;;;;49.60;14.80;;;7.20;99.90;;;;;;4892679;29;37673;-75
2022/11/26 08:18:40;;;;;;;43.20;13.57;;;7.20;99.90;;;;;;4890127;29;37766;-75
2022/11/26 08:21:07;;;;;;;49.97;15.37;;;7.20;99.90;;;;;;4876233;29;37195;-77
2022/11/26 08:23:33;;;;;;;44.73;13.67;;;7.30;99.90;;;;;;4875467;29;37524;-76
2022/11/26 08:26:05;;;;;;;48.47;13.67;;;7.30;99.90;;;;;;4890711;29;38709;-75
2022/11/26 08:28:31;;;;;;;44.38;13.30;;;7.30;99.90;;;;;;4891154;29;48772;-76
2022/11/26 08:31:06;;;;;;;52.03;14.03;;;7.30;99.90;;;;;;4892887;29;37185;-76
2022/11/26 08:33:33;;;;;;;46.93;13.30;;;7.40;99.90;;;;;;4890022;29;49368;-77
2022/11/26 08:36:00;;;;;;;54.27;13.80;;;7.40;99.90;;;;;;4891284;29;36447;-77
2022/11/26 08:38:30;;;;;;;56.03;13.17;;;7.40;99.90;;;;;;4890317;29;38649;-76
2022/11/26 08:41:14;;;;;;;40.93;13.83;;;7.40;99.90;;;;;;4890616;29;37973;-77
2022/11/26 08:43:40;;;;;;;44.70;13.60;;;7.50;99.90;;;;;;4871436;29;46119;-77
2022/11/26 08:46:09;;;;;;;55.13;14.33;;;7.50;99.90;;;;;;4874148;29;36436;-76
2022/11/26 08:48:35;;;;;;;36.03;13.10;;;7.50;99.90;;;;;;4887225;29;38730;-77
2022/11/26 08:51:05;;;;;;;50.70;15.53;;;7.50;99.90;;;;;;4894209;29;37926;-76
2022/11/26 08:53:32;;;;;;;41.63;14.27;;;7.60;99.90;;;;;;4876701;29;47249;-76
2022/11/26 08:56:04;;;;;;;40.33;12.17;;;7.60;99.90;;;;;;4893407;29;37806;-75
2022/11/26 08:58:33;;;;;;;62.60;13.83;;;7.60;99.90;;;;;;4892007;29;47201;-76
2022/11/26 09:00:59;;;;;;;48.00;13.50;;;7.60;99.90;;;;;;4892559;29;39032;-75
2022/11/26 09:03:25;;;;;;;45.17;13.13;;;7.70;99.90;;;;;;4893381;29;38089;-76
2022/11/26 09:05:51;;;;;;;49.17;13.43;;;7.70;99.90;;;;;;4889502;29;38198;-75
2022/11/26 09:08:17;;;;;;;44.90;12.93;;;7.70;99.90;;;;;;4886913;29;38727;-77
2022/11/26 09:10:54;;;;;;;50.63;13.70;;;7.70;99.90;;;;;;4872281;29;38757;-76
2022/11/26 09:13:21;;;;;;;56.30;14.13;;;7.70;99.90;;;;;;4876373;29;37581;-81
2022/11/26 09:15:48;;;;;;;49.47;14.13;;;7.80;99.90;;;;;;4874090;29;36982;-79
2022/11/26 09:18:15;;;;;;;48.43;13.30;;;7.80;99.90;;;;;;4867309;29;39612;-74
2022/11/26 09:20:41;;;;;;;57.07;14.03;;;7.90;99.90;;;;;;4865742;29;37623;-75
2022/11/26 09:23:07;;;;;;;49.87;13.77;;;7.90;99.90;;;;;;4872080;29;36676;-75
2022/11/26 09:25:37;;;;;;;59.40;14.13;;;8.00;99.90;;;;;;4900955;29;37806;-81
2022/11/26 09:28:03;;;;;;;43.23;13.00;;;8.00;99.90;;;;;;4889155;28;38906;-76
2022/11/26 09:30:30;;;;;;;48.47;13.87;;;8.10;99.90;;;;;;4868105;29;38436;-75
2022/11/26 09:32:56;;;;;;;53.70;14.37;;;8.10;99.90;;;;;;4888165;29;38019;-75
2022/11/26 09:35:22;;;;;;;45.23;15.50;;;8.20;99.90;;;;;;4885633;29;36130;-73
2022/11/26 09:37:48;;;;;;;43.40;12.30;;;8.30;99.90;;;;;;4884638;29;37844;-74
2022/11/26 09:40:18;;;;;;;43.80;11.57;;;8.30;99.90;;;;;;4883290;29;38267;-74
2022/11/26 09:43:22;;;;;;;51.33;12.33;;;8.30;99.90;;;;;;4872517;29;36986;-75
2022/11/26 09:45:54;;;;;;;40.07;12.20;;;8.40;99.90;;;;;;4888605;29;47228;-75
2022/11/26 09:48:23;;;;;;;41.17;11.75;;;8.40;99.90;;;;;;4893571;29;38949;-75
2022/11/26 09:50:55;;;;;;;48.30;12.43;;;8.40;99.90;;;;;;4884055;29;37841;-76
2022/11/26 09:53:29;;;;;;;37.90;11.37;;;8.30;99.90;;;;;;4887460;29;38157;-75
2022/11/26 09:55:55;;;;;;;37.50;11.73;;;8.40;99.90;;;;;;4853335;29;37071;-75
2022/11/26 09:58:27;;;;;;;42.27;12.63;;;8.40;99.90;;;;;;4874329;29;38084;-75
2022/11/26 10:00:56;;;;;;;42.60;10.90;;;8.40;99.90;;;;;;4882755;29;38601;-74
2022/11/26 10:03:29;;;;;;;40.47;12.57;;;8.50;99.90;;;;;;4874019;29;38302;-75
2022/11/26 10:06:01;;;;;;;43.07;11.80;;;8.50;99.90;;;;;;4884591;29;36246;-75
2022/11/26 10:08:45;;;;;;;36.08;9.95;;;8.50;99.90;;;;;;4870281;29;40264;-75
2022/11/26 10:11:14;;;;;;;50.43;12.70;;;8.60;99.90;;;;;;4890791;29;38262;-76
2022/11/26 10:14:02;;;;;;;40.07;13.13;;;8.50;99.90;;;;;;4893530;29;38044;-74
2022/11/26 10:16:37;;;;;;;51.60;12.97;;;8.60;99.90;;;;;;4892723;29;37313;-76
2022/11/26 10:19:21;;;;;;;38.67;13.37;;;8.60;99.90;;;;;;4894495;28;37831;-76
2022/11/26 10:21:55;;;;;;;35.97;12.03;;;8.60;99.90;;;;;;4884477;29;38443;-74
2022/11/26 10:24:40;;;;;;;32.63;11.73;;;8.70;99.90;;;;;;4882949;29;37229;-75
2022/11/26 10:27:14;;;;;;;51.23;11.37;;;8.80;99.90;;;;;;4876994;29;36426;-75
2022/11/26 10:29:43;;;;;;;34.70;11.37;;;8.80;99.90;;;;;;4882800;29;38815;-75
2022/11/26 10:32:36;;;;;;;39.27;11.23;;;8.90;99.90;;;;;;4881522;29;38260;-75
2022/11/26 10:35:03;;;;;;;40.80;11.23;;;8.90;99.90;;;;;;4883013;29;36659;-74
2022/11/26 10:37:29;;;;;;;44.97;12.20;;;9.00;99.90;;;;;;4887754;29;47272;-76
2022/11/26 10:40:05;;;;;;;42.90;11.47;;;9.10;99.90;;;;;;4887482;29;37692;-75
2022/11/26 10:42:43;;;;;;;39.00;12.47;;;9.10;99.90;;;;;;4869045;29;47259;-75
2022/11/26 10:45:19;;;;;;;38.27;11.67;;;9.20;99.90;;;;;;4892698;29;37582;-76
2022/11/26 10:47:45;;;;;;;41.60;11.77;;;9.20;99.90;;;;;;4878507;29;36740;-75
2022/11/26 10:50:22;;;;;;;40.03;11.63;;;9.30;99.90;;;;;;4878354;29;39849;-73
2022/11/26 10:52:48;;;;;;;41.37;10.53;;;9.30;99.90;;;;;;4868549;29;38708;-72
2022/11/26 10:55:19;;;;;;;39.10;12.00;;;9.30;99.90;;;;;;4876753;29;37292;-74
2022/11/26 10:57:57;;;;;;;48.07;14.10;;;9.40;99.90;;;;;;4883003;29;37396;-74
2022/11/26 11:00:33;;;;;;;40.93;11.87;;;9.40;99.90;;;;;;4880789;29;36527;-75
2022/11/26 11:03:01;;;;;;;42.13;11.73;;;9.40;99.90;;;;;;4887370;29;37873;-74
2022/11/26 11:05:28;;;;;;;35.47;11.00;;;9.50;99.90;;;;;;4884785;29;37379;-75
2022/11/26 11:07:54;;;;;;;40.20;12.07;;;9.40;99.90;;;;;;4884734;29;38424;-74
2022/11/26 11:10:23;;;;;;;35.63;12.20;;;9.50;99.90;;;;;;4867583;29;39194;-75
2022/11/26 11:12:59;;;;;;;38.23;11.97;;;9.50;99.90;;;;;;4883942;29;38766;-75
2022/11/26 11:15:31;;;;;;;30.83;10.30;;;9.50;99.90;;;;;;4888639;29;39495;-75
2022/11/26 11:18:06;;;;;;;36.53;10.07;;;9.50;99.90;;;;;;4884173;29;36270;-74
2022/11/26 11:20:37;;;;;;;37.17;11.50;;;9.60;99.90;;;;;;4870993;29;47134;-74
2022/11/26 11:23:06;;;;;;;33.50;10.50;;;9.50;99.90;;;;;;4891415;29;40475;-76
2022/11/26 11:25:34;;;;;;;34.60;10.97;;;9.50;99.90;;;;;;4873380;29;37050;-76
2022/11/26 11:28:21;;;;;;;43.83;12.23;;;9.60;99.90;;;;;;4887634;29;37342;-76
2022/11/26 11:30:59;;;;;;;37.10;11.50;;;9.60;99.90;;;;;;4887355;29;48619;-76
2022/11/26 11:33:27;;;;;;;26.93;10.77;;;9.70;99.90;;;;;;4887188;29;36149;-75
2022/11/26 11:36:14;;;;;;;31.97;9.83;;;9.80;99.90;;;;;;4872474;29;38174;-76
2022/11/26 11:38:58;;;;;;;35.77;10.63;;;9.80;99.90;;;;;;4880502;29;48862;-76
2022/11/26 11:41:35;;;;;;;35.37;9.87;;;9.80;99.90;;;;;;4882840;29;38824;-75
2022/11/26 11:44:16;;;;;;;30.30;9.77;;;10.00;99.90;;;;;;4884466;29;37488;-75
2022/11/26 11:47:28;;;;;;;29.27;9.80;;;10.10;99.90;;;;;;4882865;29;48477;-77
2022/11/26 11:50:17;;;;;;;29.80;9.73;;;10.10;99.90;;;;;;4865702;29;47278;-78
2022/11/26 11:52:57;;;;;;;29.67;9.37;;;10.20;99.90;;;;;;4871320;29;47044;-75
2022/11/26 11:55:40;;;;;;;34.93;9.37;;;10.30;99.90;;;;;;4869243;29;37738;-76
2022/11/26 11:58:37;;;;;;;27.77;9.60;;;10.50;99.90;;;;;;4886935;29;36051;-77
2022/11/26 12:01:07;;;;;;;29.20;9.50;;;10.50;99.90;;;;;;4888884;29;37618;-77
2022/11/26 12:04:14;;;;;;;30.67;9.00;;;10.50;99.90;;;;;;4873121;29;46968;-76
2022/11/26 12:07:03;;;;;;;29.30;8.23;;;10.40;99.90;;;;;;4882692;29;47092;-75
2022/11/26 12:09:49;;;;;;;19.97;7.03;;;10.30;99.90;;;;;;4851134;29;47079;-75
2022/11/26 12:12:21;;;;;;;29.50;8.37;;;10.20;99.90;;;;;;4886172;29;37762;-76
2022/11/26 12:14:47;;;;;;;37.40;9.45;;;10.30;99.90;;;;;;4885750;29;38351;-77
2022/11/26 12:17:31;;;;;;;23.20;8.00;;;10.30;99.90;;;;;;4886159;29;37010;-76
2022/11/26 12:20:23;;;;;;;32.57;9.50;;;10.30;99.90;;;;;;4886942;29;37172;-77
2022/11/26 12:23:16;;;;;;;39.00;10.00;;;10.30;99.90;;;;;;4892027;29;48789;-75
2022/11/26 12:25:45;;;;;;;33.17;8.77;;;10.40;99.90;;;;;;4865858;29;47214;-79
2022/11/26 12:28:17;;;;;;;31.33;9.03;;;10.40;99.90;;;;;;4885952;29;38435;-76
2022/11/26 12:31:15;;;;;;;23.20;7.80;;;10.40;99.90;;;;;;4891434;29;36725;-75
2022/11/26 12:33:51;;;;;;;31.43;8.17;;;10.40;99.90;;;;;;4876894;29;49122;-75
2022/11/26 12:36:37;;;;;;;29.33;10.37;;;10.40;99.90;;;;;;4886636;29;37969;-75
2022/11/26 12:39:17;;;;;;;26.93;9.00;;;10.40;99.90;;;;;;4885314;29;37501;-75
2022/11/26 12:41:54;;;;;;;24.00;8.20;;;10.40;99.90;;;;;;4883399;29;35676;-75
2022/11/26 12:44:34;;;;;;;30.00;8.97;;;10.50;99.90;;;;;;4888308;29;36062;-76
2022/11/26 12:47:39;;;;;;;24.77;7.97;;;10.60;99.90;;;;;;4885209;29;38865;-74
2022/11/26 12:50:31;;;;;;;31.37;8.80;;;10.60;99.90;;;;;;4874693;29;47005;-73
2022/11/26 12:53:11;;;;;;;26.20;9.00;;;10.60;99.90;;;;;;4881399;29;38394;-75
2022/11/26 12:55:57;;;;;;;28.47;9.27;;;10.60;99.90;;;;;;4874195;29;48826;-74
2022/11/26 12:58:33;;;;;;;36.40;9.27;;;10.50;99.90;;;;;;4862007;29;39270;-75
2022/11/26 13:00:59;;;;;;;26.33;8.20;;;10.60;99.90;;;;;;4875491;29;38715;-75
2022/11/26 13:03:32;;;;;;;27.03;8.07;;;10.50;99.90;;;;;;4877909;29;38273;-75